createdAt,value
2022-11-22T04:36:27.918Z,100
2022-11-22T04:41:29.624Z,100
2022-11-22T04:46:31.408Z,100
2022-11-22T04:51:33.283Z,100
2022-11-22T04:56:35.147Z,100
2022-11-22T05:01:37.032Z,100
2022-11-22T05:06:39.048Z,100
2022-11-22T05:11:40.864Z,100
2022-11-22T05:16:42.540Z,100
2022-11-22T05:21:44.354Z,100
2022-11-22T05:26:46.129Z,100
2022-11-22T05:31:51.795Z,100
2022-11-22T05:36:53.858Z,100
2022-11-22T05:41:55.584Z,100
2022-11-22T05:46:58.080Z,100
2022-11-22T05:51:59.809Z,100
2022-11-22T05:57:01.511Z,100
2022-11-22T06:02:03.374Z,100
2022-11-22T06:12:11.023Z,100
2022-11-22T06:17:12.752Z,100
2022-11-22T06:22:14.580Z,100
2022-11-22T06:27:16.244Z,100
2022-11-22T06:32:17.958Z,100
2022-11-22T06:37:19.711Z,100
2022-11-22T06:42:21.622Z,100
2022-11-22T06:47:23.358Z,100
2022-11-22T06:52:25.168Z,100
2022-11-22T06:57:26.940Z,100
2022-11-22T07:02:28.712Z,100
2022-11-22T07:07:30.898Z,100
2022-11-22T07:12:32.938Z,100
2022-11-22T07:17:35.038Z,100
2022-11-22T07:22:36.908Z,100
2022-11-22T07:27:38.659Z,100
2022-11-22T07:32:40.462Z,100
2022-11-22T07:37:42.078Z,100
2022-11-22T07:42:43.871Z,100
2022-11-22T07:47:45.544Z,100
2022-11-22T07:57:53.167Z,100
2022-11-22T08:03:00.020Z,100
2022-11-22T08:08:01.919Z,100
2022-11-22T08:13:03.508Z,100
2022-11-22T08:18:05.377Z,100
2022-11-22T08:23:07.103Z,100
2022-11-22T08:28:08.928Z,100
2022-11-22T08:33:10.831Z,100
2022-11-22T08:38:12.803Z,100
2022-11-22T08:43:14.578Z,100
2022-11-22T08:53:23.274Z,100
2022-11-22T08:58:25.260Z,100
2022-11-22T09:03:27.062Z,100
2022-11-22T09:08:35.937Z,100
2022-11-22T09:13:46.174Z,100
2022-11-22T09:18:48.216Z,100
2022-11-22T09:23:50.560Z,100
2022-11-22T09:28:52.241Z,100
2022-11-22T09:33:53.951Z,100
2022-11-22T09:38:56.052Z,100
2022-11-22T09:44:04.046Z,100
2022-11-22T09:54:14.295Z,100
2022-11-22T09:59:18.197Z,100
2022-11-22T10:04:21.991Z,100
2022-11-22T10:09:30.841Z,100
2022-11-22T10:19:43.850Z,100
2022-11-22T10:24:45.790Z,100
2022-11-22T10:29:51.323Z,100
2022-11-22T10:40:07.181Z,100
2022-11-22T10:45:12.467Z,100
2022-11-22T10:50:18.403Z,100
2022-11-22T10:55:25.054Z,100
2022-11-22T11:00:29.061Z,100
2022-11-22T11:05:34.340Z,100
2022-11-22T11:10:36.989Z,100
2022-11-22T11:15:41.665Z,100
2022-11-22T11:20:43.541Z,100
2022-11-22T11:25:46.346Z,100
2022-11-22T11:30:49.727Z,100
2022-11-22T11:35:52.252Z,100
2022-11-22T11:40:54.078Z,100
2022-11-22T11:51:05.593Z,100
2022-11-22T12:01:18.791Z,100
2022-11-22T12:06:20.914Z,100
2022-11-22T12:11:25.956Z,100
2022-11-22T12:16:29.213Z,100
2022-11-22T12:21:34.805Z,100
2022-11-22T12:26:36.719Z,100
2022-11-22T12:31:40.972Z,100
2022-11-22T12:36:45.696Z,100
2022-11-22T12:41:49.429Z,100
2022-11-22T12:46:54.319Z,100
2022-11-22T12:51:59.516Z,100
2022-11-22T12:57:05.605Z,100
2022-11-22T13:02:13.755Z,100
2022-11-22T13:07:18.872Z,100
2022-11-22T13:12:23.612Z,100
2022-11-22T13:17:26.496Z,100
2022-11-22T13:22:30.895Z,100
2022-11-22T13:27:35.493Z,100
2022-11-22T13:32:41.234Z,100
2022-11-22T13:37:43.998Z,100
2022-11-22T13:42:45.754Z,100
2022-11-22T13:47:47.788Z,100
2022-11-22T13:52:50.988Z,100
2022-11-22T13:57:52.773Z,100
2022-11-22T14:08:00.986Z,100
2022-11-22T14:13:08.561Z,100
2022-11-22T14:23:24.233Z,100
2022-11-22T14:38:42.140Z,100
2022-11-22T14:43:43.984Z,100
2022-11-22T14:48:48.569Z,100
2022-11-22T14:53:52.069Z,100
2022-11-22T14:58:57.347Z,100
2022-11-22T16:00:23.513Z,100
2022-11-22T16:10:37.137Z,100
2022-11-22T16:15:39.532Z,100
2022-11-22T16:20:41.817Z,100
2022-11-22T16:25:45.037Z,100
2022-11-22T16:30:47.256Z,100
2022-11-22T16:35:52.643Z,100
2022-11-22T16:40:56.406Z,100
2022-11-22T16:45:59.364Z,100
2022-11-22T16:51:03.415Z,100
2022-11-22T16:56:06.427Z,100
2022-11-22T17:01:09.677Z,100
2022-11-22T17:06:13.790Z,100
2022-11-22T17:11:17.512Z,100
2022-11-22T17:16:20.535Z,100
2022-11-22T17:21:25.023Z,100
2022-11-22T17:26:28.312Z,99.59
2022-11-22T17:31:30.451Z,99.59
2022-11-22T17:36:33.988Z,99.14
2022-11-22T17:41:36.912Z,99.14
2022-11-22T17:46:41.521Z,98.37
2022-11-22T17:51:45.754Z,98.37
2022-11-22T17:56:48.257Z,98.14
2022-11-22T18:01:51.204Z,98.14
2022-11-22T18:06:53.723Z,98.23
2022-11-22T18:11:57.542Z,98.14
2022-11-22T18:17:00.418Z,98.14
2022-11-22T18:22:03.287Z,97.88
2022-11-22T18:27:07.522Z,97.88
2022-11-22T18:32:10.929Z,96.87
2022-11-22T18:37:13.905Z,96.87
2022-11-22T18:42:18.387Z,96.13
2022-11-22T18:47:21.844Z,96.13
2022-11-22T18:52:26.146Z,96
2022-11-22T18:57:31.095Z,96
2022-11-22T19:02:34.506Z,95.96
2022-11-22T19:07:38.455Z,95.96
2022-11-22T19:12:41.179Z,95.32
2022-11-22T19:17:46.196Z,95.32
2022-11-22T19:22:49.500Z,94.63
2022-11-22T19:27:53.921Z,94.81
2022-11-22T19:32:57.131Z,94.81
2022-11-22T19:38:00.403Z,95.09
2022-11-22T19:43:03.319Z,95.09
2022-11-22T19:48:10.169Z,94.58
2022-11-22T19:53:13.695Z,94.58
2022-11-22T19:58:17.440Z,95.09
2022-11-22T20:03:20.684Z,95.09
2022-11-22T20:08:26.303Z,95.53
2022-11-22T20:13:30.283Z,95.53
2022-11-22T20:18:33.441Z,94.77
2022-11-22T20:23:37.594Z,94.77
2022-11-22T20:28:41.891Z,93.57
2022-11-22T20:33:47.284Z,93.57
2022-11-22T20:38:50.519Z,92.82
2022-11-22T20:43:54.251Z,93.6
2022-11-22T20:48:59.785Z,93.6
2022-11-22T20:54:04.069Z,94.23
2022-11-22T20:59:06.970Z,94.23
2022-11-22T21:04:09.690Z,94.69
2022-11-22T21:09:15.328Z,94.69
2022-11-22T21:14:18.781Z,94.76
2022-11-22T21:19:21.070Z,94.76
2022-11-22T21:24:23.466Z,97.26
2022-11-22T21:29:25.654Z,97.26
2022-11-22T21:34:27.584Z,99.58
2022-11-22T21:39:30.262Z,99.58
2022-11-22T21:44:32.388Z,100
2022-11-22T21:49:34.701Z,100
2022-11-22T21:54:36.878Z,100
2022-11-22T21:59:38.697Z,100
2022-11-22T22:04:40.471Z,100
2022-11-22T22:09:42.236Z,100
2022-11-22T22:14:44.076Z,100
2022-11-22T22:19:45.819Z,100
2022-11-22T22:24:47.602Z,100
2022-11-22T22:29:49.299Z,100
2022-11-22T22:34:52.169Z,100
2022-11-22T22:39:53.899Z,100
